createdAt,value
2017-12-01T00:01:07.279Z,3.40
2017-12-01T00:03:34.355Z,3.50
2017-12-01T00:06:01.424Z,3.50
2017-12-01T00:08:28.485Z,3.50
2017-12-01T00:10:55.531Z,3.50
2017-12-01T00:13:22.586Z,3.40
2017-12-01T00:15:49.635Z,3.50
2017-12-01T00:18:16.683Z,3.50
2017-12-01T00:20:43.730Z,3.60
2017-12-01T00:23:10.791Z,3.60
2017-12-01T00:25:37.837Z,3.50
2017-12-01T00:28:04.889Z,3.50
2017-12-01T00:30:31.962Z,3.40
2017-12-01T00:32:59.048Z,3.50
2017-12-01T00:35:26.874Z,3.50
2017-12-01T00:37:53.920Z,3.50
2017-12-01T00:40:20.969Z,3.50
2017-12-01T00:42:48.063Z,3.50
2017-12-01T00:45:15.127Z,3.50
2017-12-01T00:47:42.176Z,3.50
2017-12-01T00:50:09.982Z,3.60
2017-12-01T00:52:37.035Z,3.60
2017-12-01T00:55:04.077Z,3.70
2017-12-01T00:57:31.145Z,3.60
2017-12-01T00:59:58.196Z,3.60
2017-12-01T01:02:25.287Z,3.60
2017-12-01T01:04:52.324Z,3.70
2017-12-01T01:07:19.423Z,3.60
2017-12-01T01:09:46.467Z,3.70
2017-12-01T01:12:13.507Z,3.80
2017-12-01T01:14:40.546Z,3.80
2017-12-01T01:17:08.580Z,3.80
2017-12-01T01:19:35.659Z,3.80
2017-12-01T01:22:03.483Z,3.80
2017-12-01T01:24:30.547Z,3.70
2017-12-01T01:26:57.657Z,3.60
2017-12-01T01:29:24.731Z,3.50
2017-12-01T01:31:51.811Z,3.40
2017-12-01T01:34:18.904Z,3.50
2017-12-01T01:36:46.074Z,3.60
2017-12-01T01:39:13.143Z,3.70
2017-12-01T01:41:40.227Z,3.80
2017-12-01T01:44:07.302Z,3.80
2017-12-01T01:46:34.352Z,3.90
2017-12-01T01:49:01.396Z,3.90
2017-12-01T01:51:28.456Z,3.90
2017-12-01T01:53:55.508Z,3.90
2017-12-01T01:56:22.632Z,3.90
2017-12-01T01:58:49.689Z,3.90
2017-12-01T02:01:16.766Z,3.90
2017-12-01T02:03:43.832Z,3.80
2017-12-01T02:06:10.887Z,3.90
2017-12-01T02:08:37.972Z,3.90
2017-12-01T02:11:05.043Z,3.90
2017-12-01T02:13:32.220Z,3.80
2017-12-01T02:15:59.319Z,3.90
2017-12-01T02:18:26.372Z,3.80
2017-12-01T02:20:53.448Z,3.80
2017-12-01T02:23:21.275Z,3.90
2017-12-01T02:25:48.328Z,3.90
2017-12-01T02:28:15.394Z,4.00
2017-12-01T02:30:42.484Z,4.00
2017-12-01T02:33:09.533Z,3.70
2017-12-01T02:35:36.600Z,3.80
2017-12-01T02:38:04.433Z,3.80
2017-12-01T02:40:31.501Z,3.80
2017-12-01T02:42:58.556Z,3.90
2017-12-01T02:45:25.655Z,3.80
2017-12-01T02:47:52.683Z,3.80
2017-12-01T02:50:19.738Z,3.80
2017-12-01T02:52:46.801Z,3.60
2017-12-01T02:55:13.866Z,3.70
2017-12-01T02:57:40.908Z,3.50
2017-12-01T03:00:07.950Z,3.50
2017-12-01T03:02:35.009Z,3.40
2017-12-01T03:05:02.061Z,3.40
2017-12-01T03:07:29.121Z,3.30
2017-12-01T03:09:56.191Z,3.30
2017-12-01T03:12:23.248Z,3.30
2017-12-01T03:14:51.064Z,3.20
2017-12-01T03:17:18.119Z,3.20
2017-12-01T03:19:45.166Z,3.10
2017-12-01T03:22:12.207Z,3.10
2017-12-01T03:24:39.274Z,3.10
2017-12-01T03:27:06.397Z,3.10
2017-12-01T03:29:33.487Z,3.20
2017-12-01T03:32:00.539Z,3.20
2017-12-01T03:34:27.601Z,3.20
2017-12-01T03:36:55.407Z,3.00
2017-12-01T03:39:22.461Z,3.00
2017-12-01T03:41:49.504Z,3.00
2017-12-01T03:44:16.559Z,3.00
2017-12-01T03:46:43.604Z,3.10
2017-12-01T03:49:10.652Z,3.10
2017-12-01T03:51:37.686Z,3.00
2017-12-01T03:54:04.748Z,2.80
2017-12-01T03:56:31.793Z,2.80
2017-12-01T03:58:58.849Z,2.90
2017-12-01T04:01:25.902Z,2.80
2017-12-01T04:03:52.950Z,2.80
2017-12-01T04:06:20.007Z,2.80
2017-12-01T04:08:47.069Z,2.80
2017-12-01T04:11:14.146Z,2.80
2017-12-01T04:13:41.966Z,2.80
2017-12-01T04:16:09.014Z,2.70
2017-12-01T04:18:36.054Z,2.90
2017-12-01T04:21:03.111Z,2.90
2017-12-01T04:23:30.170Z,3.00
2017-12-01T04:25:57.243Z,2.90
2017-12-01T04:28:25.067Z,2.90
2017-12-01T04:30:52.115Z,2.90
2017-12-01T04:33:19.170Z,2.90
2017-12-01T04:35:46.222Z,3.00
2017-12-01T04:38:13.281Z,2.90
2017-12-01T04:40:40.347Z,2.90
2017-12-01T04:43:08.204Z,2.90
2017-12-01T04:45:35.270Z,2.90
2017-12-01T04:48:03.105Z,3.00
2017-12-01T04:50:30.918Z,3.00
2017-12-01T04:52:57.986Z,3.00
2017-12-01T04:55:25.089Z,3.10
2017-12-01T04:57:53.374Z,3.00
2017-12-01T05:00:21.208Z,3.00
2017-12-01T05:02:48.268Z,3.00
2017-12-01T05:05:15.356Z,3.10
2017-12-01T05:07:43.167Z,3.20
2017-12-01T05:10:10.212Z,3.20
2017-12-01T05:12:37.259Z,3.20
2017-12-01T05:15:04.315Z,3.20
2017-12-01T05:17:31.379Z,3.30
2017-12-01T05:19:58.430Z,3.40
2017-12-01T05:22:25.505Z,3.40
2017-12-01T05:24:53.374Z,3.30
2017-12-01T05:27:21.214Z,3.30
2017-12-01T05:29:48.317Z,3.30
2017-12-01T05:32:17.314Z,3.20
2017-12-01T05:34:44.363Z,3.10
2017-12-01T05:37:11.450Z,3.00
2017-12-01T05:39:38.646Z,3.00
2017-12-01T05:42:05.743Z,3.00
2017-12-01T05:44:32.807Z,3.00
2017-12-01T05:46:59.858Z,2.90
2017-12-01T05:49:26.996Z,2.90
2017-12-01T05:51:54.059Z,2.80
2017-12-01T05:54:21.169Z,2.70
2017-12-01T05:56:48.259Z,2.80
2017-12-01T05:59:15.318Z,2.70
2017-12-01T06:01:43.132Z,2.80
2017-12-01T06:04:10.206Z,2.80
2017-12-01T06:06:38.098Z,2.80
2017-12-01T06:09:05.924Z,2.80
2017-12-01T06:11:33.044Z,2.80
2017-12-01T06:14:00.115Z,2.70
2017-12-01T06:16:27.175Z,2.60
2017-12-01T06:18:54.247Z,2.60
2017-12-01T06:21:21.339Z,2.50
2017-12-01T06:23:48.391Z,2.50
2017-12-01T06:26:15.451Z,2.40
2017-12-01T06:28:42.512Z,2.30
2017-12-01T06:31:09.618Z,2.40
2017-12-01T06:33:36.885Z,2.30
2017-12-01T06:36:03.950Z,2.30
2017-12-01T06:38:31.007Z,2.30
2017-12-01T06:40:58.543Z,2.30
2017-12-01T06:43:25.652Z,2.30
2017-12-01T06:45:53.877Z,2.30
2017-12-01T06:48:20.976Z,2.30
2017-12-01T06:50:48.029Z,2.30
2017-12-01T06:53:15.191Z,2.30
2017-12-01T06:55:42.592Z,2.30
2017-12-01T06:58:09.773Z,2.30
2017-12-01T07:00:36.855Z,2.30
2017-12-01T07:03:04.688Z,2.30
2017-12-01T07:05:31.762Z,2.30
2017-12-01T07:07:59.598Z,2.30
2017-12-01T07:10:26.653Z,2.30
2017-12-01T07:12:53.699Z,2.50
2017-12-01T07:15:20.756Z,2.50
2017-12-01T07:17:47.859Z,2.50
2017-12-01T07:20:15.898Z,2.40
2017-12-01T07:22:43.704Z,2.50
2017-12-01T07:25:10.744Z,2.40
2017-12-01T07:27:37.808Z,2.50
2017-12-01T07:30:04.864Z,2.40
2017-12-01T07:32:31.927Z,2.50
2017-12-01T07:34:59.002Z,2.40
2017-12-01T07:37:26.861Z,2.50
2017-12-01T07:39:53.925Z,2.40
2017-12-01T07:42:21.751Z,2.50
2017-12-01T07:44:51.630Z,2.50
2017-12-01T07:47:18.699Z,2.50
2017-12-01T07:49:45.779Z,2.60
2017-12-01T07:52:13.856Z,2.70
2017-12-01T07:54:41.678Z,2.90
2017-12-01T07:57:09.536Z,2.80
2017-12-01T07:59:37.396Z,3.00
2017-12-01T08:02:04.469Z,2.90
2017-12-01T08:04:31.528Z,3.00
2017-12-01T08:06:58.607Z,3.00
2017-12-01T08:09:25.661Z,3.20
2017-12-01T08:11:53.511Z,3.30
2017-12-01T08:14:20.573Z,3.30
2017-12-01T08:16:54.215Z,3.30
2017-12-01T08:19:21.262Z,3.30
2017-12-01T08:21:54.272Z,3.20
2017-12-01T08:24:27.172Z,3.30
2017-12-01T08:26:54.218Z,3.30
2017-12-01T08:29:21.278Z,3.30
2017-12-01T08:31:48.340Z,3.40
2017-12-01T08:34:16.198Z,3.40
2017-12-01T08:36:43.276Z,3.40
2017-12-01T08:39:10.360Z,3.50
2017-12-01T08:41:37.415Z,3.60
2017-12-01T08:44:04.482Z,3.50
2017-12-01T08:46:31.545Z,3.40
2017-12-01T08:48:58.617Z,3.40
2017-12-01T08:51:25.682Z,3.50
2017-12-01T08:53:52.753Z,3.50
2017-12-01T08:56:19.825Z,3.60
2017-12-01T08:58:46.869Z,3.40
2017-12-01T09:01:13.934Z,3.60
2017-12-01T09:03:41.002Z,3.60
2017-12-01T09:06:08.826Z,3.70
2017-12-01T09:08:35.916Z,3.70
2017-12-01T09:11:03.738Z,3.50
2017-12-01T09:13:30.824Z,3.50
2017-12-01T09:15:57.874Z,3.60
2017-12-01T09:18:25.699Z,3.60
2017-12-01T09:20:52.780Z,3.50
2017-12-01T09:23:19.868Z,3.60
2017-12-01T09:25:46.922Z,3.70
2017-12-01T09:28:14.031Z,3.70
2017-12-01T09:30:41.109Z,3.70
2017-12-01T09:33:08.159Z,3.80
2017-12-01T09:35:35.217Z,3.90
2017-12-01T09:38:02.956Z,4.00
2017-12-01T09:40:30.805Z,4.20
2017-12-01T09:42:57.865Z,4.20
2017-12-01T09:45:25.683Z,4.10
2017-12-01T09:47:52.739Z,4.10
2017-12-01T09:50:19.854Z,4.10
2017-12-01T09:52:46.907Z,3.90
2017-12-01T09:55:13.963Z,3.90
2017-12-01T09:57:41.011Z,3.80
2017-12-01T10:00:08.058Z,3.80
2017-12-01T10:02:35.128Z,3.90
2017-12-01T10:05:02.185Z,3.80
2017-12-01T10:07:29.293Z,3.80
2017-12-01T10:09:56.513Z,3.80
2017-12-01T10:12:23.570Z,3.70
2017-12-01T10:14:51.427Z,3.70
2017-12-01T10:17:18.487Z,3.70
2017-12-01T10:19:45.818Z,3.60
2017-12-01T10:22:12.945Z,3.60
2017-12-01T10:24:40.029Z,3.60
2017-12-01T10:27:07.091Z,3.60
2017-12-01T10:29:34.914Z,3.90
2017-12-01T10:32:01.993Z,3.90
2017-12-01T10:34:29.104Z,4.00
2017-12-01T10:36:56.188Z,4.10
2017-12-01T10:39:23.335Z,4.20
2017-12-01T10:41:50.412Z,4.30
2017-12-01T10:44:17.471Z,4.40
2017-12-01T10:46:44.516Z,4.60
2017-12-01T10:49:11.663Z,4.50
2017-12-01T10:51:38.734Z,4.30
2017-12-01T10:54:05.801Z,4.20
2017-12-01T10:56:32.871Z,4.00
2017-12-01T10:58:59.947Z,4.10
2017-12-01T11:01:27.330Z,4.10
2017-12-01T11:03:54.426Z,4.10
2017-12-01T11:06:21.565Z,4.20
2017-12-01T11:08:48.620Z,4.20
2017-12-01T11:11:15.700Z,4.20
2017-12-01T11:13:42.857Z,4.20
2017-12-01T11:16:10.015Z,4.40
2017-12-01T11:18:37.319Z,4.40
2017-12-01T11:21:04.389Z,4.50
2017-12-01T11:23:32.252Z,4.80
2017-12-01T11:25:59.313Z,4.80
2017-12-01T11:28:26.490Z,5.00
2017-12-01T11:30:53.559Z,5.00
2017-12-01T11:33:20.651Z,4.90
2017-12-01T11:35:47.728Z,4.90
2017-12-01T11:38:14.801Z,4.80
2017-12-01T11:40:41.849Z,4.60
2017-12-01T11:43:08.932Z,4.70
2017-12-01T11:45:36.029Z,4.70
2017-12-01T11:48:03.090Z,4.60
2017-12-01T11:50:30.225Z,4.50
2017-12-01T11:52:57.289Z,4.50
2017-12-01T11:55:24.361Z,4.50
2017-12-01T11:57:52.205Z,4.70
2017-12-01T12:00:19.280Z,4.60
2017-12-01T12:02:46.360Z,4.60
2017-12-01T12:05:13.431Z,4.50
2017-12-01T12:07:41.243Z,4.40
2017-12-01T12:10:08.332Z,4.40
2017-12-01T12:12:36.150Z,4.40
2017-12-01T12:15:03.225Z,4.30
2017-12-01T12:17:30.342Z,4.30
2017-12-01T12:19:57.408Z,4.50
2017-12-01T12:22:24.450Z,4.50
2017-12-01T12:24:51.544Z,4.40
2017-12-01T12:27:18.637Z,4.30
2017-12-01T12:29:45.731Z,4.30
2017-12-01T12:32:12.811Z,4.30
2017-12-01T12:34:39.882Z,4.20
2017-12-01T12:37:06.950Z,4.20
2017-12-01T12:39:34.040Z,4.20
2017-12-01T12:42:01.103Z,4.20
2017-12-01T12:44:28.173Z,4.30
2017-12-01T12:46:55.229Z,4.30
2017-12-01T12:49:22.354Z,4.20
2017-12-01T12:51:49.402Z,4.30
2017-12-01T12:54:16.465Z,4.30
2017-12-01T12:56:43.545Z,4.40
2017-12-01T12:59:10.611Z,4.40
2017-12-01T13:01:37.709Z,4.40
2017-12-01T13:04:04.765Z,4.40
2017-12-01T13:06:31.849Z,4.50
2017-12-01T13:08:58.919Z,4.50
2017-12-01T13:11:26.737Z,4.50
2017-12-01T13:13:53.818Z,4.50
2017-12-01T13:16:20.909Z,4.60
2017-12-01T13:18:48.316Z,4.50
2017-12-01T13:21:15.376Z,4.60
2017-12-01T13:23:43.213Z,4.70
2017-12-01T13:26:10.351Z,4.70
2017-12-01T13:28:38.176Z,4.70
2017-12-01T13:31:06.087Z,4.70
2017-12-01T13:33:33.161Z,4.70
2017-12-01T13:36:00.218Z,4.80
2017-12-01T13:38:27.362Z,4.90
2017-12-01T13:40:54.411Z,5.00
2017-12-01T13:43:21.472Z,5.00
2017-12-01T13:45:48.627Z,5.10
2017-12-01T13:48:15.720Z,5.10
2017-12-01T13:50:42.786Z,5.00
2017-12-01T13:53:09.860Z,5.00
2017-12-01T13:55:36.931Z,5.00
2017-12-01T13:58:04.798Z,4.80
2017-12-01T14:00:32.625Z,4.90
2017-12-01T14:02:59.718Z,4.90
2017-12-01T14:05:27.557Z,4.80
2017-12-01T14:07:54.641Z,4.80
2017-12-01T14:10:22.459Z,4.90
2017-12-01T14:12:49.512Z,4.80
2017-12-01T14:15:16.611Z,4.70
2017-12-01T14:17:43.675Z,4.50
2017-12-01T14:20:10.744Z,4.50
2017-12-01T14:22:37.799Z,4.50
2017-12-01T14:25:04.914Z,4.60
2017-12-01T14:27:31.960Z,4.60
2017-12-01T14:29:59.006Z,4.60
2017-12-01T14:32:26.092Z,4.70
2017-12-01T14:34:53.141Z,4.70
2017-12-01T14:37:20.243Z,4.70
2017-12-01T14:39:48.084Z,4.50
2017-12-01T14:42:15.141Z,4.50
2017-12-01T14:44:42.992Z,4.40
2017-12-01T14:47:10.064Z,4.40
2017-12-01T14:49:38.009Z,4.50
2017-12-01T14:52:05.455Z,4.50
2017-12-01T14:54:32.622Z,4.50
2017-12-01T14:56:59.779Z,4.50
2017-12-01T14:59:26.878Z,4.30
2017-12-01T15:01:53.974Z,4.40
2017-12-01T15:04:21.034Z,4.40
2017-12-01T15:06:48.859Z,4.50
2017-12-01T15:09:16.201Z,4.50
2017-12-01T15:11:43.251Z,4.50
2017-12-01T15:14:10.344Z,4.60
2017-12-01T15:16:37.463Z,4.50
2017-12-01T15:19:05.353Z,4.30
2017-12-01T15:21:32.460Z,4.30
2017-12-01T15:23:59.540Z,4.30
2017-12-01T15:26:26.609Z,4.40
2017-12-01T15:28:53.682Z,4.40
2017-12-01T15:31:20.731Z,4.40
2017-12-01T15:33:47.824Z,4.30
2017-12-01T15:36:14.872Z,4.40
2017-12-01T15:38:41.932Z,4.40
2017-12-01T15:41:09.025Z,4.50
2017-12-01T15:43:36.853Z,4.60
2017-12-01T15:46:03.937Z,4.60
2017-12-01T15:48:31.791Z,4.60
2017-12-01T15:51:00.103Z,4.60
2017-12-01T15:53:27.321Z,4.60
2017-12-01T15:55:55.143Z,4.60
2017-12-01T15:58:22.421Z,4.60
2017-12-01T16:00:49.486Z,4.50
2017-12-01T16:03:17.324Z,4.50
2017-12-01T16:05:46.089Z,4.50
2017-12-01T16:08:13.164Z,4.50
2017-12-01T16:10:40.225Z,4.40
2017-12-01T16:13:07.370Z,4.40
2017-12-01T16:15:35.326Z,4.50
2017-12-01T16:18:02.410Z,4.40
2017-12-01T16:20:29.557Z,4.40
2017-12-01T16:22:57.383Z,4.50
2017-12-01T16:25:25.202Z,4.50
2017-12-01T16:27:52.247Z,4.50
2017-12-01T16:30:19.351Z,4.50
2017-12-01T16:32:51.196Z,4.60
2017-12-01T16:35:13.528Z,4.60
2017-12-01T16:37:40.579Z,4.50
2017-12-01T16:40:07.637Z,4.50
2017-12-01T16:42:34.722Z,4.60
2017-12-01T16:45:01.802Z,4.60
2017-12-01T16:47:28.874Z,4.80
2017-12-01T16:49:55.986Z,4.80
2017-12-01T16:52:23.962Z,4.80
2017-12-01T16:54:51.854Z,4.80
2017-12-01T16:57:18.903Z,4.80
2017-12-01T16:59:46.037Z,4.80
2017-12-01T17:02:13.145Z,4.70
2017-12-01T17:04:40.199Z,4.70
2017-12-01T17:07:08.230Z,4.60
2017-12-01T17:09:35.326Z,4.70
2017-12-01T17:12:02.416Z,4.60
2017-12-01T17:14:29.550Z,4.70
2017-12-01T17:16:57.383Z,4.70
2017-12-01T17:19:24.634Z,4.70
2017-12-01T17:21:52.496Z,4.60
2017-12-01T17:24:19.630Z,4.60
2017-12-01T17:26:46.928Z,4.60
2017-12-01T17:29:14.050Z,4.50
2017-12-01T17:31:42.116Z,4.40
2017-12-01T17:34:09.232Z,4.40
2017-12-01T17:36:37.230Z,4.30
2017-12-01T17:39:04.322Z,4.40
2017-12-01T17:41:32.842Z,4.30
2017-12-01T17:44:00.748Z,4.20
2017-12-01T17:46:27.864Z,4.20
2017-12-01T17:48:54.909Z,4.30
2017-12-01T17:51:21.989Z,4.30
2017-12-01T17:53:49.091Z,4.20
2017-12-01T17:56:16.167Z,4.20
2017-12-01T17:58:43.218Z,4.20
2017-12-01T18:01:10.308Z,4.20
2017-12-01T18:03:37.357Z,4.40
2017-12-01T18:06:04.434Z,4.40
2017-12-01T18:08:31.493Z,4.40
2017-12-01T18:10:58.608Z,4.40
2017-12-01T18:13:26.467Z,4.40
2017-12-01T18:15:53.529Z,4.40
2017-12-01T18:18:21.382Z,4.40
2017-12-01T18:20:48.447Z,4.40
2017-12-01T18:23:16.276Z,4.30
2017-12-01T18:25:43.316Z,4.30
2017-12-01T18:28:10.402Z,4.30
2017-12-01T18:30:38.243Z,4.20
2017-12-01T18:33:05.340Z,4.20
2017-12-01T18:35:32.416Z,4.10
2017-12-01T18:37:59.479Z,4.20
2017-12-01T18:40:26.528Z,4.10
2017-12-01T18:42:53.585Z,4.20
2017-12-01T18:45:20.667Z,4.20
2017-12-01T18:47:47.734Z,4.20
2017-12-01T18:50:14.872Z,4.30
2017-12-01T18:52:41.957Z,4.40
2017-12-01T18:55:09.047Z,4.30
2017-12-01T18:57:36.429Z,4.40
2017-12-01T19:00:03.704Z,4.40
2017-12-01T19:02:30.770Z,4.40
2017-12-01T19:04:57.860Z,4.40
2017-12-01T19:07:25.052Z,4.40
2017-12-01T19:09:52.167Z,4.40
2017-12-01T19:12:19.275Z,4.40
2017-12-01T19:14:46.332Z,4.30
2017-12-01T19:17:13.384Z,4.30
2017-12-01T19:19:40.502Z,4.20
2017-12-01T19:22:07.567Z,4.20
2017-12-01T19:24:34.641Z,4.00
2017-12-01T19:27:01.729Z,4.00
2017-12-01T19:29:28.787Z,3.80
2017-12-01T19:31:55.869Z,3.90
2017-12-01T19:34:22.913Z,3.80
2017-12-01T19:36:50.015Z,3.80
2017-12-01T19:39:17.859Z,3.80
2017-12-01T19:41:45.729Z,3.90
2017-12-01T19:44:13.352Z,3.90
2017-12-01T19:46:40.403Z,4.00
2017-12-01T19:49:08.240Z,4.00
2017-12-01T19:51:35.323Z,4.00
2017-12-01T19:54:02.391Z,4.00
2017-12-01T19:56:29.471Z,4.00
2017-12-01T19:58:57.325Z,3.90
2017-12-01T20:01:25.506Z,3.90
2017-12-01T20:03:52.758Z,3.90
2017-12-01T20:06:19.947Z,3.90
2017-12-01T20:08:47.125Z,4.00
2017-12-01T20:11:14.219Z,3.90
2017-12-01T20:13:41.420Z,4.00
2017-12-01T20:16:14.407Z,4.00
2017-12-01T20:18:41.493Z,4.00
2017-12-01T20:21:09.469Z,3.90
2017-12-01T20:23:36.642Z,3.90
2017-12-01T20:26:03.882Z,4.00
2017-12-01T20:28:31.747Z,3.90
2017-12-01T20:30:59.618Z,3.90
2017-12-01T20:33:26.754Z,3.90
2017-12-01T20:35:58.710Z,3.90
2017-12-01T20:38:25.882Z,3.90
2017-12-01T20:40:53.715Z,3.90
2017-12-01T20:43:20.777Z,3.90
2017-12-01T20:45:48.866Z,3.80
2017-12-01T20:48:18.398Z,3.90
2017-12-01T20:50:45.553Z,3.90
2017-12-01T20:53:12.625Z,3.90
2017-12-01T20:55:39.695Z,4.00
2017-12-01T20:58:07.072Z,3.90
2017-12-01T21:00:34.147Z,4.00
2017-12-01T21:03:01.268Z,3.90
2017-12-01T21:05:30.041Z,4.00
2017-12-01T21:07:57.113Z,4.00
2017-12-01T21:10:24.184Z,4.10
2017-12-01T21:12:51.263Z,4.00
2017-12-01T21:15:18.338Z,4.00
2017-12-01T21:17:45.402Z,4.10
2017-12-01T21:20:13.270Z,4.10
2017-12-01T21:22:41.138Z,4.10
2017-12-01T21:25:08.987Z,4.10
2017-12-01T21:27:36.088Z,4.10
2017-12-01T21:30:03.167Z,4.10
2017-12-01T21:32:30.417Z,4.10
2017-12-01T21:34:57.556Z,4.10
2017-12-01T21:37:24.735Z,4.20
2017-12-01T21:39:51.925Z,4.30
2017-12-01T21:42:18.999Z,4.20
2017-12-01T21:44:46.086Z,4.10
2017-12-01T21:47:13.161Z,4.20
2017-12-01T21:49:40.238Z,4.30
2017-12-01T21:52:07.313Z,4.20
2017-12-01T21:54:34.386Z,4.40
2017-12-01T21:57:01.531Z,4.30
2017-12-01T21:59:28.611Z,4.20
2017-12-01T22:01:55.818Z,4.30
2017-12-01T22:04:22.910Z,4.30
2017-12-01T22:06:49.993Z,4.30
2017-12-01T22:09:17.090Z,4.30
2017-12-01T22:11:44.198Z,4.40
2017-12-01T22:14:11.266Z,4.40
2017-12-01T22:16:38.340Z,4.50
2017-12-01T22:19:05.421Z,4.50
2017-12-01T22:21:32.479Z,4.50
2017-12-01T22:23:59.863Z,4.60
2017-12-01T22:26:27.189Z,4.60
2017-12-01T22:28:54.280Z,4.60
2017-12-01T22:31:21.340Z,4.70
2017-12-01T22:33:48.396Z,4.70
2017-12-01T22:36:16.285Z,4.70
2017-12-01T22:38:44.116Z,4.70
2017-12-01T22:41:11.176Z,4.70
2017-12-01T22:43:39.018Z,4.80
2017-12-01T22:46:06.079Z,4.80
2017-12-01T22:48:33.645Z,4.80
2017-12-01T22:51:00.726Z,4.90
2017-12-01T22:53:27.788Z,4.90
2017-12-01T22:55:54.999Z,4.80
2017-12-01T22:58:22.063Z,4.90
2017-12-01T23:00:49.158Z,4.90
2017-12-01T23:03:16.314Z,4.90
2017-12-01T23:05:43.370Z,4.90
2017-12-01T23:08:10.441Z,4.80
2017-12-01T23:10:37.483Z,4.80
2017-12-01T23:13:04.585Z,4.80
2017-12-01T23:15:32.480Z,4.90
2017-12-01T23:17:59.581Z,5.00
2017-12-01T23:20:27.431Z,4.80
2017-12-01T23:22:54.484Z,4.80
2017-12-01T23:25:22.312Z,4.80
2017-12-01T23:27:49.359Z,4.80
2017-12-01T23:30:16.410Z,4.80
2017-12-01T23:32:43.467Z,4.70
2017-12-01T23:35:10.515Z,4.70
2017-12-01T23:37:37.576Z,4.70
2017-12-01T23:40:04.624Z,4.60
2017-12-01T23:42:31.679Z,4.60
2017-12-01T23:44:58.731Z,4.60
2017-12-01T23:47:25.790Z,4.60
2017-12-01T23:49:53.647Z,4.70
2017-12-01T23:52:20.735Z,4.70
2017-12-01T23:54:47.800Z,4.80
2017-12-01T23:57:14.855Z,4.90
2017-12-01T23:59:41.894Z,4.90
